ローマ/フィウミチーノ の空港の天気 - METARとTAF

ローマ・レオナルド・ダ・ビンチ国際空港 ( LIRF / FCO ) - イタリア ローマ
飛行場実況気象(Metar)
観測時間01/22 10:50 CET (01/22 09:50 UTC)
風向・風速東北東 7m/s
視程10km以上
天気現象
全天の4割程度の雲 雲底高度 1520m
気温12℃
湿度54%
気圧1022hPa
METARLIRF 220950Z 06013KT 9999 SCT050 12/03 Q1022 NOSIG
過去の天気等 Google飛行場航空写真 Wunderground天気予報

過去48時間のMETAR

飛行場予報(TAF)
発表時間: 1/22 06:00 CET (1/22 05:00 UTC)
予報対象時間: 22日7時 CET ~ 23日13時 CET
風向・風速東北東 6m/s
視程10km以上
全天の4割程度の雲 雲底高度 1,220m
22日16時 CET ~ 23日7時 CET に一時的に
天気現象
TAF LIRF 220500Z 2206/2312 07012KT 9999 SCT040
TEMPO 2215/2306 RA